sensor_id;sensor_type;location;lat;lon;timestamp;P1;durP1;ratioP1;P2;durP2;ratioP2
55069;SDS011;40967;52.070;8.596;2022-10-22T00:01:00;0.98;;;0.50;;
55069;SDS011;40967;52.070;8.596;2022-10-22T00:04:15;1.00;;;0.60;;
55069;SDS011;40967;52.070;8.596;2022-10-22T00:07:13;0.60;;;0.50;;
55069;SDS011;40967;52.070;8.596;2022-10-22T00:10:10;1.40;;;0.50;;
55069;SDS011;40967;52.070;8.596;2022-10-22T00:12:56;0.80;;;0.50;;
55069;SDS011;40967;52.070;8.596;2022-10-22T00:15:22;0.93;;;0.60;;
55069;SDS011;40967;52.070;8.596;2022-10-22T00:17:48;0.70;;;0.50;;
55069;SDS011;40967;52.070;8.596;2022-10-22T00:20:13;0.60;;;0.53;;
55069;SDS011;40967;52.070;8.596;2022-10-22T00:22:39;0.70;;;0.50;;
55069;SDS011;40967;52.070;8.596;2022-10-22T00:25:05;1.30;;;0.60;;
55069;SDS011;40967;52.070;8.596;2022-10-22T00:27:30;0.87;;;0.60;;
55069;SDS011;40967;52.070;8.596;2022-10-22T00:29:56;0.70;;;0.50;;
55069;SDS011;40967;52.070;8.596;2022-10-22T00:32:21;0.82;;;0.50;;
55069;SDS011;40967;52.070;8.596;2022-10-22T00:34:47;0.73;;;0.50;;
55069;SDS011;40967;52.070;8.596;2022-10-22T00:37:12;1.17;;;0.60;;
55069;SDS011;40967;52.070;8.596;2022-10-22T00:39:38;1.23;;;0.60;;
55069;SDS011;40967;52.070;8.596;2022-10-22T00:42:03;1.02;;;0.60;;
55069;SDS011;40967;52.070;8.596;2022-10-22T00:51:08;1.15;;;0.60;;
55069;SDS011;40967;52.070;8.596;2022-10-22T00:54:33;0.93;;;0.50;;
55069;SDS011;40967;52.070;8.596;2022-10-22T00:57:06;0.90;;;0.60;;
55069;SDS011;40967;52.070;8.596;2022-10-22T00:59:43;0.52;;;0.40;;
55069;SDS011;40967;52.070;8.596;2022-10-22T01:02:29;0.70;;;0.50;;
55069;SDS011;40967;52.070;8.596;2022-10-22T01:04:55;0.97;;;0.50;;
55069;SDS011;40967;52.070;8.596;2022-10-22T01:07:21;0.85;;;0.52;;
55069;SDS011;40967;52.070;8.596;2022-10-22T01:10:03;0.70;;;0.50;;
55069;SDS011;40967;52.070;8.596;2022-10-22T01:12:48;0.80;;;0.53;;
55069;SDS011;40967;52.070;8.596;2022-10-22T01:18:08;0.73;;;0.50;;
55069;SDS011;40967;52.070;8.596;2022-10-22T01:25:56;0.98;;;0.57;;
55069;SDS011;40967;52.070;8.596;2022-10-22T01:31:26;1.05;;;0.60;;
55069;SDS011;40967;52.070;8.596;2022-10-22T01:33:59;1.08;;;0.60;;
55069;SDS011;40967;52.070;8.596;2022-10-22T01:36:28;0.80;;;0.50;;
55069;SDS011;40967;52.070;8.596;2022-10-22T01:38:56;0.77;;;0.55;;
55069;SDS011;40967;52.070;8.596;2022-10-22T01:41:26;0.90;;;0.50;;
55069;SDS011;40967;52.070;8.596;2022-10-22T01:43:53;1.40;;;0.53;;
55069;SDS011;40967;52.070;8.596;2022-10-22T01:46:18;0.65;;;0.50;;
55069;SDS011;40967;52.070;8.596;2022-10-22T01:51:37;0.85;;;0.60;;
55069;SDS011;40967;52.070;8.596;2022-10-22T01:54:15;1.10;;;0.63;;
55069;SDS011;40967;52.070;8.596;2022-10-22T01:56:55;0.82;;;0.50;;
55069;SDS011;40967;52.070;8.596;2022-10-22T02:05:41;0.90;;;0.50;;
55069;SDS011;40967;52.070;8.596;2022-10-22T02:08:16;0.77;;;0.55;;
55069;SDS011;40967;52.070;8.596;2022-10-22T02:10:46;0.77;;;0.50;;
55069;SDS011;40967;52.070;8.596;2022-10-22T02:13:16;1.33;;;0.57;;
55069;SDS011;40967;52.070;8.596;2022-10-22T02:15:46;0.80;;;0.50;;
55069;SDS011;40967;52.070;8.596;2022-10-22T02:18:15;1.02;;;0.60;;
55069;SDS011;40967;52.070;8.596;2022-10-22T02:20:43;1.00;;;0.60;;
55069;SDS011;40967;52.070;8.596;2022-10-22T02:23:09;1.07;;;0.67;;
55069;SDS011;40967;52.070;8.596;2022-10-22T02:25:35;1.10;;;0.57;;
55069;SDS011;40967;52.070;8.596;2022-10-22T02:30:41;0.73;;;0.50;;
55069;SDS011;40967;52.070;8.596;2022-10-22T02:33:12;1.02;;;0.60;;
55069;SDS011;40967;52.070;8.596;2022-10-22T02:35:42;1.48;;;0.77;;
55069;SDS011;40967;52.070;8.596;2022-10-22T02:38:09;1.00;;;0.60;;
55069;SDS011;40967;52.070;8.596;2022-10-22T02:40:36;0.90;;;0.52;;
55069;SDS011;40967;52.070;8.596;2022-10-22T02:43:03;1.27;;;0.70;;
55069;SDS011;40967;52.070;8.596;2022-10-22T02:45:29;1.00;;;0.60;;
55069;SDS011;40967;52.070;8.596;2022-10-22T02:47:55;0.80;;;0.50;;
55069;SDS011;40967;52.070;8.596;2022-10-22T02:50:21;0.73;;;0.60;;
55069;SDS011;40967;52.070;8.596;2022-10-22T02:52:46;1.33;;;0.67;;
55069;SDS011;40967;52.070;8.596;2022-10-22T02:55:12;0.73;;;0.50;;
55069;SDS011;40967;52.070;8.596;2022-10-22T02:57:37;0.60;;;0.50;;
55069;SDS011;40967;52.070;8.596;2022-10-22T03:00:06;0.88;;;0.50;;
55069;SDS011;40967;52.070;8.596;2022-10-22T03:02:33;0.90;;;0.50;;
55069;SDS011;40967;52.070;8.596;2022-10-22T03:04:58;0.82;;;0.52;;
55069;SDS011;40967;52.070;8.596;2022-10-22T03:07:23;0.90;;;0.60;;
55069;SDS011;40967;52.070;8.596;2022-10-22T03:09:49;1.33;;;0.70;;
55069;SDS011;40967;52.070;8.596;2022-10-22T03:12:14;0.90;;;0.60;;
55069;SDS011;40967;52.070;8.596;2022-10-22T03:14:40;0.67;;;0.50;;
55069;SDS011;40967;52.070;8.596;2022-10-22T03:17:05;1.27;;;0.60;;
55069;SDS011;40967;52.070;8.596;2022-10-22T03:19:34;0.82;;;0.60;;
55069;SDS011;40967;52.070;8.596;2022-10-22T03:22:01;0.90;;;0.57;;
55069;SDS011;40967;52.070;8.596;2022-10-22T03:24:37;0.90;;;0.50;;
55069;SDS011;40967;52.070;8.596;2022-10-22T03:27:06;0.55;;;0.40;;
55069;SDS011;40967;52.070;8.596;2022-10-22T03:29:35;0.68;;;0.40;;
55069;SDS011;40967;52.070;8.596;2022-10-22T03:32:03;0.60;;;0.40;;
55069;SDS011;40967;52.070;8.596;2022-10-22T03:34:29;0.80;;;0.55;;
55069;SDS011;40967;52.070;8.596;2022-10-22T03:36:55;1.03;;;0.70;;
55069;SDS011;40967;52.070;8.596;2022-10-22T03:39:22;0.80;;;0.60;;
55069;SDS011;40967;52.070;8.596;2022-10-22T03:41:48;0.73;;;0.50;;
55069;SDS011;40967;52.070;8.596;2022-10-22T03:44:15;1.60;;;0.70;;
55069;SDS011;40967;52.070;8.596;2022-10-22T03:46:42;0.90;;;0.57;;
55069;SDS011;40967;52.070;8.596;2022-10-22T03:49:07;1.33;;;0.60;;
55069;SDS011;40967;52.070;8.596;2022-10-22T03:51:33;0.97;;;0.50;;
55069;SDS011;40967;52.070;8.596;2022-10-22T03:53:59;0.93;;;0.60;;
55069;SDS011;40967;52.070;8.596;2022-10-22T03:56:25;0.60;;;0.50;;
55069;SDS011;40967;52.070;8.596;2022-10-22T03:58:54;0.88;;;0.60;;
55069;SDS011;40967;52.070;8.596;2022-10-22T04:01:21;0.70;;;0.50;;
55069;SDS011;40967;52.070;8.596;2022-10-22T04:03:46;0.80;;;0.50;;
55069;SDS011;40967;52.070;8.596;2022-10-22T04:06:12;0.70;;;0.50;;
55069;SDS011;40967;52.070;8.596;2022-10-22T04:08:38;0.98;;;0.70;;
55069;SDS011;40967;52.070;8.596;2022-10-22T04:11:07;0.90;;;0.57;;
55069;SDS011;40967;52.070;8.596;2022-10-22T04:13:33;1.10;;;0.63;;
55069;SDS011;40967;52.070;8.596;2022-10-22T04:16:06;1.20;;;0.70;;
55069;SDS011;40967;52.070;8.596;2022-10-22T04:18:31;0.95;;;0.63;;
55069;SDS011;40967;52.070;8.596;2022-10-22T04:20:57;1.07;;;0.57;;
55069;SDS011;40967;52.070;8.596;2022-10-22T04:23:22;0.93;;;0.60;;
55069;SDS011;40967;52.070;8.596;2022-10-22T04:25:47;1.10;;;0.70;;
55069;SDS011;40967;52.070;8.596;2022-10-22T04:28:13;1.03;;;0.60;;
55069;SDS011;40967;52.070;8.596;2022-10-22T04:30:38;1.15;;;0.70;;
55069;SDS011;40967;52.070;8.596;2022-10-22T04:33:03;1.17;;;0.70;;
55069;SDS011;40967;52.070;8.596;2022-10-22T04:35:29;1.17;;;0.67;;
55069;SDS011;40967;52.070;8.596;2022-10-22T04:37:54;1.07;;;0.60;;
55069;SDS011;40967;52.070;8.596;2022-10-22T04:40:20;1.43;;;0.83;;
55069;SDS011;40967;52.070;8.596;2022-10-22T04:42:46;1.27;;;0.77;;
55069;SDS011;40967;52.070;8.596;2022-10-22T04:45:11;1.17;;;0.75;;
55069;SDS011;40967;52.070;8.596;2022-10-22T04:47:39;1.20;;;0.68;;
55069;SDS011;40967;52.070;8.596;2022-10-22T04:50:05;1.33;;;0.82;;
55069;SDS011;40967;52.070;8.596;2022-10-22T04:52:31;1.00;;;0.63;;
55069;SDS011;40967;52.070;8.596;2022-10-22T04:54:56;1.20;;;0.70;;
55069;SDS011;40967;52.070;8.596;2022-10-22T04:57:21;1.40;;;0.70;;
55069;SDS011;40967;52.070;8.596;2022-10-22T04:59:47;1.13;;;0.70;;
55069;SDS011;40967;52.070;8.596;2022-10-22T05:02:12;1.00;;;0.70;;
55069;SDS011;40967;52.070;8.596;2022-10-22T05:04:38;1.27;;;0.67;;
55069;SDS011;40967;52.070;8.596;2022-10-22T05:07:03;1.65;;;0.82;;
55069;SDS011;40967;52.070;8.596;2022-10-22T05:09:28;1.67;;;0.77;;
55069;SDS011;40967;52.070;8.596;2022-10-22T05:11:54;1.50;;;0.83;;
55069;SDS011;40967;52.070;8.596;2022-10-22T05:14:43;1.45;;;0.80;;
55069;SDS011;40967;52.070;8.596;2022-10-22T05:17:39;1.95;;;0.80;;
55069;SDS011;40967;52.070;8.596;2022-10-22T05:20:56;1.20;;;0.70;;
55069;SDS011;40967;52.070;8.596;2022-10-22T05:23:35;1.50;;;0.80;;
55069;SDS011;40967;52.070;8.596;2022-10-22T05:29:26;1.63;;;0.70;;
55069;SDS011;40967;52.070;8.596;2022-10-22T05:32:12;1.23;;;0.80;;
55069;SDS011;40967;52.070;8.596;2022-10-22T05:38:30;1.42;;;0.80;;
55069;SDS011;40967;52.070;8.596;2022-10-22T05:41:37;1.50;;;0.88;;
55069;SDS011;40967;52.070;8.596;2022-10-22T05:44:23;1.58;;;0.90;;
55069;SDS011;40967;52.070;8.596;2022-10-22T05:47:09;1.33;;;0.80;;
55069;SDS011;40967;52.070;8.596;2022-10-22T05:50:05;1.10;;;0.80;;
55069;SDS011;40967;52.070;8.596;2022-10-22T05:53:32;1.08;;;0.70;;
55069;SDS011;40967;52.070;8.596;2022-10-22T05:56:43;1.38;;;0.75;;
55069;SDS011;40967;52.070;8.596;2022-10-22T06:02:52;1.40;;;0.80;;
55069;SDS011;40967;52.070;8.596;2022-10-22T06:19:44;1.55;;;0.90;;
55069;SDS011;40967;52.070;8.596;2022-10-22T06:22:46;1.73;;;0.93;;
55069;SDS011;40967;52.070;8.596;2022-10-22T06:26:00;1.77;;;0.90;;
55069;SDS011;40967;52.070;8.596;2022-10-22T06:28:31;1.13;;;0.80;;
55069;SDS011;40967;52.070;8.596;2022-10-22T06:34:18;1.33;;;0.80;;
55069;SDS011;40967;52.070;8.596;2022-10-22T06:36:44;0.83;;;0.67;;
55069;SDS011;40967;52.070;8.596;2022-10-22T06:39:12;1.33;;;0.88;;
55069;SDS011;40967;52.070;8.596;2022-10-22T06:41:39;1.10;;;0.70;;
55069;SDS011;40967;52.070;8.596;2022-10-22T06:44:04;1.50;;;0.90;;
55069;SDS011;40967;52.070;8.596;2022-10-22T06:46:30;2.07;;;0.90;;
55069;SDS011;40967;52.070;8.596;2022-10-22T06:49:14;1.90;;;0.85;;
55069;SDS011;40967;52.070;8.596;2022-10-22T06:51:48;1.55;;;0.80;;
55069;SDS011;40967;52.070;8.596;2022-10-22T06:54:53;1.80;;;0.90;;
55069;SDS011;40967;52.070;8.596;2022-10-22T06:57:41;1.27;;;0.80;;
55069;SDS011;40967;52.070;8.596;2022-10-22T07:00:07;1.40;;;0.87;;
55069;SDS011;40967;52.070;8.596;2022-10-22T07:02:32;1.85;;;1.00;;
55069;SDS011;40967;52.070;8.596;2022-10-22T07:04:58;1.57;;;0.93;;
55069;SDS011;40967;52.070;8.596;2022-10-22T07:07:23;1.80;;;0.90;;
55069;SDS011;40967;52.070;8.596;2022-10-22T07:09:51;1.67;;;1.00;;
55069;SDS011;40967;52.070;8.596;2022-10-22T07:12:17;1.77;;;1.08;;
55069;SDS011;40967;52.070;8.596;2022-10-22T07:14:42;1.90;;;1.00;;
55069;SDS011;40967;52.070;8.596;2022-10-22T07:17:08;1.40;;;0.83;;
55069;SDS011;40967;52.070;8.596;2022-10-22T07:19:33;1.40;;;0.90;;
55069;SDS011;40967;52.070;8.596;2022-10-22T07:21:59;2.47;;;1.00;;
55069;SDS011;40967;52.070;8.596;2022-10-22T07:24:24;1.77;;;1.00;;
55069;SDS011;40967;52.070;8.596;2022-10-22T07:26:49;1.57;;;0.90;;
55069;SDS011;40967;52.070;8.596;2022-10-22T07:29:15;1.50;;;1.00;;
55069;SDS011;40967;52.070;8.596;2022-10-22T07:31:41;1.70;;;1.10;;
55069;SDS011;40967;52.070;8.596;2022-10-22T07:34:07;1.85;;;1.08;;
55069;SDS011;40967;52.070;8.596;2022-10-22T07:36:32;1.58;;;1.00;;
55069;SDS011;40967;52.070;8.596;2022-10-22T07:38:58;1.50;;;0.90;;
55069;SDS011;40967;52.070;8.596;2022-10-22T07:41:25;1.52;;;1.00;;
55069;SDS011;40967;52.070;8.596;2022-10-22T07:43:51;1.73;;;0.90;;
55069;SDS011;40967;52.070;8.596;2022-10-22T07:46:17;1.30;;;0.80;;
55069;SDS011;40967;52.070;8.596;2022-10-22T07:48:42;1.42;;;0.90;;
55069;SDS011;40967;52.070;8.596;2022-10-22T07:51:08;1.40;;;0.80;;
55069;SDS011;40967;52.070;8.596;2022-10-22T07:53:33;1.00;;;0.60;;
55069;SDS011;40967;52.070;8.596;2022-10-22T07:55:59;1.07;;;0.67;;
55069;SDS011;40967;52.070;8.596;2022-10-22T07:58:24;1.13;;;0.63;;
55069;SDS011;40967;52.070;8.596;2022-10-22T08:00:50;0.80;;;0.60;;
55069;SDS011;40967;52.070;8.596;2022-10-22T08:03:18;0.80;;;0.65;;
55069;SDS011;40967;52.070;8.596;2022-10-22T08:05:44;1.20;;;0.70;;
55069;SDS011;40967;52.070;8.596;2022-10-22T08:08:10;1.10;;;0.75;;
55069;SDS011;40967;52.070;8.596;2022-10-22T08:10:37;1.23;;;0.70;;
55069;SDS011;40967;52.070;8.596;2022-10-22T08:13:03;1.33;;;0.60;;
55069;SDS011;40967;52.070;8.596;2022-10-22T08:15:28;1.20;;;0.40;;
55069;SDS011;40967;52.070;8.596;2022-10-22T08:17:55;0.75;;;0.50;;
55069;SDS011;40967;52.070;8.596;2022-10-22T08:20:20;0.77;;;0.50;;
55069;SDS011;40967;52.070;8.596;2022-10-22T08:22:46;0.73;;;0.50;;
55069;SDS011;40967;52.070;8.596;2022-10-22T08:25:11;0.80;;;0.50;;
55069;SDS011;40967;52.070;8.596;2022-10-22T08:27:36;1.03;;;0.50;;
55069;SDS011;40967;52.070;8.596;2022-10-22T08:30:04;0.60;;;0.50;;
55069;SDS011;40967;52.070;8.596;2022-10-22T08:32:30;0.90;;;0.60;;
55069;SDS011;40967;52.070;8.596;2022-10-22T08:34:55;0.97;;;0.47;;
55069;SDS011;40967;52.070;8.596;2022-10-22T08:37:21;1.33;;;0.60;;
55069;SDS011;40967;52.070;8.596;2022-10-22T08:39:46;1.23;;;0.80;;
55069;SDS011;40967;52.070;8.596;2022-10-22T08:49:42;2.50;;;1.10;;
55069;SDS011;40967;52.070;8.596;2022-10-22T08:52:15;2.73;;;1.10;;
55069;SDS011;40967;52.070;8.596;2022-10-22T09:00:41;2.92;;;1.38;;
55069;SDS011;40967;52.070;8.596;2022-10-22T09:06:02;2.45;;;1.35;;
55069;SDS011;40967;52.070;8.596;2022-10-22T09:08:38;2.50;;;1.30;;
55069;SDS011;40967;52.070;8.596;2022-10-22T09:14:04;7.53;;;1.60;;
55069;SDS011;40967;52.070;8.596;2022-10-22T09:25:19;3.38;;;1.60;;
55069;SDS011;40967;52.070;8.596;2022-10-22T09:27:52;2.85;;;1.58;;
55069;SDS011;40967;52.070;8.596;2022-10-22T09:30:23;3.25;;;1.73;;
55069;SDS011;40967;52.070;8.596;2022-10-22T09:32:58;2.77;;;1.23;;
55069;SDS011;40967;52.070;8.596;2022-10-22T09:35:26;3.40;;;1.50;;
55069;SDS011;40967;52.070;8.596;2022-10-22T09:37:53;2.45;;;1.30;;
55069;SDS011;40967;52.070;8.596;2022-10-22T09:40:21;3.75;;;1.33;;
55069;SDS011;40967;52.070;8.596;2022-10-22T09:42:47;4.07;;;1.70;;
55069;SDS011;40967;52.070;8.596;2022-10-22T09:45:17;3.20;;;1.63;;
55069;SDS011;40967;52.070;8.596;2022-10-22T09:47:48;4.28;;;1.55;;
55069;SDS011;40967;52.070;8.596;2022-10-22T09:50:19;4.07;;;1.77;;
55069;SDS011;40967;52.070;8.596;2022-10-22T09:52:59;3.10;;;1.60;;
55069;SDS011;40967;52.070;8.596;2022-10-22T09:55:34;3.42;;;1.58;;
55069;SDS011;40967;52.070;8.596;2022-10-22T09:58:03;5.13;;;2.10;;
55069;SDS011;40967;52.070;8.596;2022-10-22T10:00:28;3.20;;;1.60;;
55069;SDS011;40967;52.070;8.596;2022-10-22T10:02:55;4.35;;;1.83;;
55069;SDS011;40967;52.070;8.596;2022-10-22T10:05:30;7.80;;;2.20;;
55069;SDS011;40967;52.070;8.596;2022-10-22T10:08:17;3.38;;;1.45;;
55069;SDS011;40967;52.070;8.596;2022-10-22T10:10:54;4.30;;;1.90;;
55069;SDS011;40967;52.070;8.596;2022-10-22T10:16:25;4.40;;;1.50;;
55069;SDS011;40967;52.070;8.596;2022-10-22T10:19:06;3.78;;;1.20;;
55069;SDS011;40967;52.070;8.596;2022-10-22T10:35:27;2.00;;;0.90;;
55069;SDS011;40967;52.070;8.596;2022-10-22T10:38:06;2.75;;;0.90;;
55069;SDS011;40967;52.070;8.596;2022-10-22T10:41:02;2.97;;;0.85;;
55069;SDS011;40967;52.070;8.596;2022-10-22T10:49:16;2.15;;;0.80;;
55069;SDS011;40967;52.070;8.596;2022-10-22T11:00:58;4.00;;;1.03;;
55069;SDS011;40967;52.070;8.596;2022-10-22T11:06:18;4.13;;;1.10;;
55069;SDS011;40967;52.070;8.596;2022-10-22T11:08:58;6.15;;;1.52;;
55069;SDS011;40967;52.070;8.596;2022-10-22T11:11:35;3.28;;;1.00;;
55069;SDS011;40967;52.070;8.596;2022-10-22T11:14:18;5.03;;;1.48;;
55069;SDS011;40967;52.070;8.596;2022-10-22T11:19:44;3.67;;;1.08;;
55069;SDS011;40967;52.070;8.596;2022-10-22T11:22:37;6.25;;;1.52;;
55069;SDS011;40967;52.070;8.596;2022-10-22T11:25:20;5.18;;;1.45;;
55069;SDS011;40967;52.070;8.596;2022-10-22T11:30:36;4.68;;;1.23;;
55069;SDS011;40967;52.070;8.596;2022-10-22T11:33:14;4.22;;;1.30;;
55069;SDS011;40967;52.070;8.596;2022-10-22T11:35:46;4.47;;;1.10;;
55069;SDS011;40967;52.070;8.596;2022-10-22T11:38:15;6.15;;;1.20;;
55069;SDS011;40967;52.070;8.596;2022-10-22T11:41:01;3.28;;;1.10;;
55069;SDS011;40967;52.070;8.596;2022-10-22T11:46:34;4.65;;;1.20;;
55069;SDS011;40967;52.070;8.596;2022-10-22T11:51:41;3.78;;;1.10;;
55069;SDS011;40967;52.070;8.596;2022-10-22T11:56:52;2.05;;;0.93;;
55069;SDS011;40967;52.070;8.596;2022-10-22T11:59:37;3.72;;;1.20;;
55069;SDS011;40967;52.070;8.596;2022-10-22T12:04:54;3.63;;;1.05;;
55069;SDS011;40967;52.070;8.596;2022-10-22T12:07:33;2.40;;;0.90;;
55069;SDS011;40967;52.070;8.596;2022-10-22T12:10:17;4.25;;;1.08;;
55069;SDS011;40967;52.070;8.596;2022-10-22T12:12:56;5.05;;;1.45;;
55069;SDS011;40967;52.070;8.596;2022-10-22T12:15:28;4.38;;;1.00;;
55069;SDS011;40967;52.070;8.596;2022-10-22T12:18:04;4.07;;;1.30;;
55069;SDS011;40967;52.070;8.596;2022-10-22T12:21:05;2.53;;;0.70;;
55069;SDS011;40967;52.070;8.596;2022-10-22T12:23:56;2.37;;;0.83;;
55069;SDS011;40967;52.070;8.596;2022-10-22T12:26:22;2.90;;;0.90;;
55069;SDS011;40967;52.070;8.596;2022-10-22T12:29:04;2.35;;;0.80;;
55069;SDS011;40967;52.070;8.596;2022-10-22T12:31:36;4.03;;;1.08;;
55069;SDS011;40967;52.070;8.596;2022-10-22T12:34:04;3.17;;;1.00;;
55069;SDS011;40967;52.070;8.596;2022-10-22T12:36:33;2.45;;;0.80;;
55069;SDS011;40967;52.070;8.596;2022-10-22T12:39:00;3.83;;;1.20;;
55069;SDS011;40967;52.070;8.596;2022-10-22T12:41:34;3.17;;;0.85;;
55069;SDS011;40967;52.070;8.596;2022-10-22T12:44:02;4.28;;;1.27;;
55069;SDS011;40967;52.070;8.596;2022-10-22T12:46:29;5.32;;;1.20;;
55069;SDS011;40967;52.070;8.596;2022-10-22T12:49:03;2.80;;;0.93;;
55069;SDS011;40967;52.070;8.596;2022-10-22T12:51:32;2.45;;;0.90;;
55069;SDS011;40967;52.070;8.596;2022-10-22T12:54:02;1.53;;;0.63;;
55069;SDS011;40967;52.070;8.596;2022-10-22T12:56:35;4.33;;;1.20;;
55069;SDS011;40967;52.070;8.596;2022-10-22T12:59:23;2.20;;;0.80;;
55069;SDS011;40967;52.070;8.596;2022-10-22T13:01:51;3.67;;;1.02;;
55069;SDS011;40967;52.070;8.596;2022-10-22T13:09:46;3.50;;;0.90;;
55069;SDS011;40967;52.070;8.596;2022-10-22T13:12:25;3.78;;;1.00;;
55069;SDS011;40967;52.070;8.596;2022-10-22T13:14:52;2.00;;;0.80;;
55069;SDS011;40967;52.070;8.596;2022-10-22T13:17:19;3.10;;;0.90;;
55069;SDS011;40967;52.070;8.596;2022-10-22T13:20:10;1.88;;;0.65;;
55069;SDS011;40967;52.070;8.596;2022-10-22T13:25:28;2.50;;;0.73;;
55069;SDS011;40967;52.070;8.596;2022-10-22T13:27:57;2.17;;;0.70;;
55069;SDS011;40967;52.070;8.596;2022-10-22T13:30:33;2.95;;;0.60;;
55069;SDS011;40967;52.070;8.596;2022-10-22T13:35:34;1.50;;;0.40;;
55069;SDS011;40967;52.070;8.596;2022-10-22T13:38:01;1.77;;;0.50;;
55069;SDS011;40967;52.070;8.596;2022-10-22T13:40:27;2.58;;;0.60;;
55069;SDS011;40967;52.070;8.596;2022-10-22T13:42:52;3.47;;;0.90;;
55069;SDS011;40967;52.070;8.596;2022-10-22T13:45:18;3.33;;;0.90;;
55069;SDS011;40967;52.070;8.596;2022-10-22T13:47:46;3.03;;;0.60;;
55069;SDS011;40967;52.070;8.596;2022-10-22T13:50:16;2.05;;;0.70;;
55069;SDS011;40967;52.070;8.596;2022-10-22T13:52:45;3.33;;;0.80;;
55069;SDS011;40967;52.070;8.596;2022-10-22T13:55:21;3.53;;;1.00;;
55069;SDS011;40967;52.070;8.596;2022-10-22T13:58:02;2.30;;;0.80;;
55069;SDS011;40967;52.070;8.596;2022-10-22T14:00:33;4.28;;;1.05;;
55069;SDS011;40967;52.070;8.596;2022-10-22T14:02:59;2.08;;;0.60;;
55069;SDS011;40967;52.070;8.596;2022-10-22T14:05:24;2.30;;;0.63;;
55069;SDS011;40967;52.070;8.596;2022-10-22T14:07:50;2.10;;;0.60;;
55069;SDS011;40967;52.070;8.596;2022-10-22T14:10:18;2.13;;;0.70;;
55069;SDS011;40967;52.070;8.596;2022-10-22T14:12:47;4.68;;;0.90;;
55069;SDS011;40967;52.070;8.596;2022-10-22T14:15:14;4.13;;;1.10;;
55069;SDS011;40967;52.070;8.596;2022-10-22T14:17:42;3.40;;;1.00;;
55069;SDS011;40967;52.070;8.596;2022-10-22T14:20:23;2.47;;;0.80;;
55069;SDS011;40967;52.070;8.596;2022-10-22T14:22:51;1.40;;;0.50;;
55069;SDS011;40967;52.070;8.596;2022-10-22T14:25:20;2.03;;;0.60;;
55069;SDS011;40967;52.070;8.596;2022-10-22T14:27:50;1.92;;;0.70;;
55069;SDS011;40967;52.070;8.596;2022-10-22T14:30:20;1.50;;;0.65;;
55069;SDS011;40967;52.070;8.596;2022-10-22T14:32:49;1.95;;;0.50;;
55069;SDS011;40967;52.070;8.596;2022-10-22T14:35:16;1.83;;;0.60;;
55069;SDS011;40967;52.070;8.596;2022-10-22T14:37:43;1.55;;;0.50;;
55069;SDS011;40967;52.070;8.596;2022-10-22T14:40:10;2.23;;;0.63;;
55069;SDS011;40967;52.070;8.596;2022-10-22T14:42:39;1.40;;;0.57;;
55069;SDS011;40967;52.070;8.596;2022-10-22T14:45:08;0.77;;;0.45;;
55069;SDS011;40967;52.070;8.596;2022-10-22T14:47:47;1.50;;;0.50;;
55069;SDS011;40967;52.070;8.596;2022-10-22T14:50:15;1.58;;;0.70;;
55069;SDS011;40967;52.070;8.596;2022-10-22T14:52:42;1.10;;;0.50;;
55069;SDS011;40967;52.070;8.596;2022-10-22T14:55:12;1.38;;;0.50;;
55069;SDS011;40967;52.070;8.596;2022-10-22T14:57:39;2.22;;;0.60;;
55069;SDS011;40967;52.070;8.596;2022-10-22T15:00:06;1.23;;;0.40;;
55069;SDS011;40967;52.070;8.596;2022-10-22T15:02:41;0.80;;;0.40;;
55069;SDS011;40967;52.070;8.596;2022-10-22T15:05:08;0.40;;;0.20;;
55069;SDS011;40967;52.070;8.596;2022-10-22T15:07:34;0.20;;;0.20;;
55069;SDS011;40967;52.070;8.596;2022-10-22T15:09:59;0.73;;;0.30;;
55069;SDS011;40967;52.070;8.596;2022-10-22T15:12:25;0.33;;;0.20;;
55069;SDS011;40967;52.070;8.596;2022-10-22T15:14:50;0.47;;;0.30;;
55069;SDS011;40967;52.070;8.596;2022-10-22T15:17:16;0.38;;;0.20;;
55069;SDS011;40967;52.070;8.596;2022-10-22T15:19:42;0.38;;;0.20;;
55069;SDS011;40967;52.070;8.596;2022-10-22T15:22:09;0.50;;;0.30;;
55069;SDS011;40967;52.070;8.596;2022-10-22T15:24:35;0.60;;;0.30;;
55069;SDS011;40967;52.070;8.596;2022-10-22T15:27:01;0.40;;;0.30;;
55069;SDS011;40967;52.070;8.596;2022-10-22T15:29:27;0.70;;;0.30;;
55069;SDS011;40967;52.070;8.596;2022-10-22T15:31:59;0.77;;;0.45;;
55069;SDS011;40967;52.070;8.596;2022-10-22T15:34:26;0.80;;;0.50;;
55069;SDS011;40967;52.070;8.596;2022-10-22T15:36:53;0.65;;;0.45;;
55069;SDS011;40967;52.070;8.596;2022-10-22T15:39:20;0.90;;;0.40;;
55069;SDS011;40967;52.070;8.596;2022-10-22T15:41:46;0.47;;;0.37;;
55069;SDS011;40967;52.070;8.596;2022-10-22T15:44:23;0.43;;;0.30;;
55069;SDS011;40967;52.070;8.596;2022-10-22T15:46:50;0.70;;;0.40;;
55069;SDS011;40967;52.070;8.596;2022-10-22T15:49:16;1.47;;;0.60;;
55069;SDS011;40967;52.070;8.596;2022-10-22T15:51:42;1.20;;;0.60;;
55069;SDS011;40967;52.070;8.596;2022-10-22T15:54:11;1.55;;;0.68;;
55069;SDS011;40967;52.070;8.596;2022-10-22T15:56:39;1.03;;;0.50;;
55069;SDS011;40967;52.070;8.596;2022-10-22T15:59:05;1.60;;;0.60;;
55069;SDS011;40967;52.070;8.596;2022-10-22T16:01:31;0.80;;;0.53;;
55069;SDS011;40967;52.070;8.596;2022-10-22T16:03:58;1.23;;;0.60;;
55069;SDS011;40967;52.070;8.596;2022-10-22T16:06:28;0.73;;;0.50;;
55069;SDS011;40967;52.070;8.596;2022-10-22T16:08:56;1.10;;;0.50;;
55069;SDS011;40967;52.070;8.596;2022-10-22T16:11:23;1.50;;;0.50;;
55069;SDS011;40967;52.070;8.596;2022-10-22T16:13:51;0.93;;;0.50;;
55069;SDS011;40967;52.070;8.596;2022-10-22T16:16:19;1.48;;;0.43;;
55069;SDS011;40967;52.070;8.596;2022-10-22T16:18:45;1.20;;;0.60;;
55069;SDS011;40967;52.070;8.596;2022-10-22T16:21:11;1.57;;;0.60;;
55069;SDS011;40967;52.070;8.596;2022-10-22T16:23:38;1.48;;;0.60;;
55069;SDS011;40967;52.070;8.596;2022-10-22T16:26:04;1.38;;;0.50;;
55069;SDS011;40967;52.070;8.596;2022-10-22T16:28:29;1.07;;;0.40;;
55069;SDS011;40967;52.070;8.596;2022-10-22T16:30:55;1.33;;;0.50;;
55069;SDS011;40967;52.070;8.596;2022-10-22T16:33:21;0.50;;;0.32;;
55069;SDS011;40967;52.070;8.596;2022-10-22T16:35:46;0.73;;;0.40;;
55069;SDS011;40967;52.070;8.596;2022-10-22T16:38:12;1.35;;;0.55;;
55069;SDS011;40967;52.070;8.596;2022-10-22T16:40:37;0.77;;;0.32;;
55069;SDS011;40967;52.070;8.596;2022-10-22T16:43:03;0.50;;;0.30;;
55069;SDS011;40967;52.070;8.596;2022-10-22T16:45:28;0.93;;;0.40;;
55069;SDS011;40967;52.070;8.596;2022-10-22T16:47:54;0.80;;;0.37;;
55069;SDS011;40967;52.070;8.596;2022-10-22T16:50:19;0.83;;;0.33;;
55069;SDS011;40967;52.070;8.596;2022-10-22T16:52:44;0.60;;;0.30;;
55069;SDS011;40967;52.070;8.596;2022-10-22T16:55:10;0.70;;;0.40;;
55069;SDS011;40967;52.070;8.596;2022-10-22T16:57:35;1.00;;;0.50;;
55069;SDS011;40967;52.070;8.596;2022-10-22T17:00:02;0.65;;;0.30;;
55069;SDS011;40967;52.070;8.596;2022-10-22T17:02:28;0.80;;;0.30;;
55069;SDS011;40967;52.070;8.596;2022-10-22T17:04:53;0.50;;;0.30;;
55069;SDS011;40967;52.070;8.596;2022-10-22T17:07:19;0.77;;;0.27;;
55069;SDS011;40967;52.070;8.596;2022-10-22T17:09:44;0.50;;;0.20;;
55069;SDS011;40967;52.070;8.596;2022-10-22T17:12:10;1.00;;;0.30;;
55069;SDS011;40967;52.070;8.596;2022-10-22T17:14:35;0.60;;;0.40;;
55069;SDS011;40967;52.070;8.596;2022-10-22T17:17:02;1.05;;;0.40;;
55069;SDS011;40967;52.070;8.596;2022-10-22T17:19:27;1.00;;;0.33;;
55069;SDS011;40967;52.070;8.596;2022-10-22T17:21:53;0.40;;;0.20;;
55069;SDS011;40967;52.070;8.596;2022-10-22T17:24:19;1.10;;;0.40;;
55069;SDS011;40967;52.070;8.596;2022-10-22T17:26:44;0.93;;;0.40;;
55069;SDS011;40967;52.070;8.596;2022-10-22T17:29:11;0.57;;;0.30;;
55069;SDS011;40967;52.070;8.596;2022-10-22T17:31:37;0.60;;;0.30;;
55069;SDS011;40967;52.070;8.596;2022-10-22T17:34:04;1.35;;;0.40;;
55069;SDS011;40967;52.070;8.596;2022-10-22T17:36:33;1.02;;;0.40;;